createdAt,value
2023-12-21T00:01:36.799Z,2.17
2023-12-21T00:04:05.108Z,1.60
2023-12-21T00:06:32.351Z,1.47
2023-12-21T00:08:59.546Z,1.30
2023-12-21T00:11:26.703Z,1.50
2023-12-21T00:13:53.774Z,1.90
2023-12-21T00:16:21.194Z,2.00
2023-12-21T00:18:48.296Z,2.17
2023-12-21T00:21:15.466Z,1.60
2023-12-21T00:23:42.571Z,1.33
2023-12-21T00:26:09.528Z,1.13
2023-12-21T00:28:37.027Z,1.30
2023-12-21T00:31:04.346Z,1.20
2023-12-21T00:33:31.565Z,1.30
2023-12-21T00:35:58.791Z,1.30
2023-12-21T00:38:25.697Z,1.17
2023-12-21T00:40:53.985Z,1.13
2023-12-21T00:43:20.963Z,0.80
2023-12-21T00:45:47.826Z,1.00
2023-12-21T00:48:16.259Z,1.50
2023-12-21T00:50:43.279Z,1.00
2023-12-21T00:53:10.160Z,1.00
2023-12-21T00:55:37.229Z,1.20
2023-12-21T00:58:04.475Z,1.07
2023-12-21T01:00:31.499Z,1.20
2023-12-21T01:02:59.303Z,1.20
2023-12-21T01:05:26.306Z,1.30
2023-12-21T01:07:53.232Z,1.30
2023-12-21T01:10:20.209Z,1.00
2023-12-21T01:12:47.062Z,1.00
2023-12-21T01:15:13.955Z,1.37
2023-12-21T01:17:40.847Z,1.33
2023-12-21T01:20:08.450Z,1.20
2023-12-21T01:22:35.426Z,1.10
2023-12-21T01:25:02.452Z,1.50
2023-12-21T01:27:32.765Z,2.73
2023-12-21T01:30:00.643Z,3.33
2023-12-21T01:32:27.637Z,1.90
2023-12-21T01:34:54.670Z,1.10
2023-12-21T01:37:21.788Z,1.50
2023-12-21T01:39:48.661Z,1.37
2023-12-21T01:42:15.482Z,0.80
2023-12-21T01:44:42.446Z,1.00
2023-12-21T01:47:10.788Z,0.73
2023-12-21T01:49:37.806Z,0.90
2023-12-21T01:52:06.680Z,0.80
2023-12-21T01:54:33.729Z,0.80
2023-12-21T01:57:00.658Z,0.70
2023-12-21T01:59:27.752Z,0.97
2023-12-21T02:01:54.667Z,0.90
2023-12-21T02:04:22.332Z,1.03
2023-12-21T02:06:49.364Z,0.80
2023-12-21T02:09:16.228Z,0.90
2023-12-21T02:11:43.046Z,1.30
2023-12-21T02:14:10.000Z,1.00
2023-12-21T02:16:57.138Z,0.80
2023-12-21T02:19:24.845Z,0.90
2023-12-21T02:21:55.564Z,0.70
2023-12-21T02:24:22.595Z,0.80
2023-12-21T02:26:49.933Z,1.00
2023-12-21T02:29:16.755Z,0.80
2023-12-21T02:31:43.825Z,0.70
2023-12-21T02:34:10.860Z,0.70
2023-12-21T02:36:37.808Z,0.90
2023-12-21T02:39:04.701Z,1.00
2023-12-21T02:41:31.518Z,1.10
2023-12-21T02:43:58.397Z,1.00
2023-12-21T02:46:26.708Z,1.10
2023-12-21T02:48:53.794Z,1.50
2023-12-21T02:51:20.842Z,1.20
2023-12-21T02:53:47.703Z,1.10
2023-12-21T02:56:14.576Z,0.90
2023-12-21T02:58:41.552Z,1.00
2023-12-21T03:01:08.646Z,0.80
2023-12-21T03:03:35.997Z,0.80
2023-12-21T03:06:02.994Z,0.90
2023-12-21T03:08:30.238Z,1.50
2023-12-21T03:10:57.309Z,1.40
2023-12-21T03:13:24.229Z,1.10
2023-12-21T03:15:51.151Z,1.07
2023-12-21T03:18:18.031Z,1.00
2023-12-21T03:20:44.881Z,0.97
2023-12-21T03:23:11.758Z,0.80
2023-12-21T03:25:38.733Z,0.80
2023-12-21T03:28:07.618Z,0.90
2023-12-21T03:30:34.606Z,0.80
2023-12-21T03:33:01.592Z,0.67
2023-12-21T03:35:28.511Z,0.60
2023-12-21T03:37:55.339Z,0.60
2023-12-21T03:40:22.255Z,0.70
2023-12-21T03:42:53.270Z,0.60
2023-12-21T03:45:20.761Z,0.63
2023-12-21T03:47:49.284Z,0.50
2023-12-21T03:50:16.347Z,0.90
2023-12-21T03:52:43.357Z,0.70
2023-12-21T03:55:10.384Z,0.60
2023-12-21T03:57:37.628Z,0.73
2023-12-21T04:00:07.038Z,0.70
2023-12-21T04:02:34.225Z,0.60
2023-12-21T04:05:01.729Z,0.63
2023-12-21T04:07:28.913Z,0.70
2023-12-21T04:09:55.779Z,0.80
2023-12-21T04:12:22.639Z,0.80
2023-12-21T04:14:49.471Z,0.80
2023-12-21T04:17:16.310Z,0.87
2023-12-21T04:19:43.319Z,0.87
2023-12-21T04:22:10.371Z,0.87
2023-12-21T04:24:37.249Z,0.77
2023-12-21T04:27:04.434Z,0.80
2023-12-21T04:29:31.324Z,0.80
2023-12-21T04:31:58.296Z,0.70
2023-12-21T04:34:25.210Z,0.77
2023-12-21T04:36:52.232Z,0.70
2023-12-21T04:39:19.079Z,0.70
2023-12-21T04:41:46.065Z,1.53
2023-12-21T04:44:13.025Z,1.10
2023-12-21T04:46:39.889Z,1.00
2023-12-21T04:49:07.584Z,0.90
2023-12-21T04:51:34.565Z,1.23
2023-12-21T04:54:01.497Z,1.60
2023-12-21T04:56:28.383Z,1.50
2023-12-21T04:58:55.178Z,1.47
2023-12-21T05:01:22.932Z,0.87
2023-12-21T05:03:49.962Z,0.80
2023-12-21T05:06:16.959Z,0.63
2023-12-21T05:08:43.828Z,0.60
2023-12-21T05:11:10.632Z,0.70
2023-12-21T05:13:37.592Z,0.70
2023-12-21T05:16:05.243Z,0.60
2023-12-21T05:18:32.113Z,0.50
2023-12-21T05:20:58.942Z,0.57
2023-12-21T05:23:25.798Z,0.50
2023-12-21T05:25:52.593Z,0.57
2023-12-21T05:28:19.442Z,0.50
2023-12-21T05:30:47.274Z,0.60
2023-12-21T05:33:14.753Z,0.60
2023-12-21T05:35:41.625Z,0.60
2023-12-21T05:38:08.452Z,0.70
2023-12-21T05:40:35.350Z,0.60
2023-12-21T05:43:02.294Z,0.50
2023-12-21T05:45:29.227Z,0.50
2023-12-21T05:47:59.952Z,0.60
2023-12-21T05:50:27.423Z,0.60
2023-12-21T05:52:54.261Z,0.80
2023-12-21T05:55:21.425Z,1.17
2023-12-21T05:57:48.347Z,0.93
2023-12-21T06:00:15.552Z,0.97
2023-12-21T06:02:42.423Z,1.00
2023-12-21T06:05:09.808Z,0.77
2023-12-21T06:07:36.901Z,1.20
2023-12-21T06:10:04.885Z,1.30
2023-12-21T06:12:31.721Z,1.50
2023-12-21T06:14:58.658Z,1.03
2023-12-21T06:17:25.535Z,0.83
2023-12-21T06:19:52.560Z,1.20
2023-12-21T06:22:19.650Z,0.80
2023-12-21T06:24:46.577Z,1.00
2023-12-21T06:27:13.508Z,0.80
2023-12-21T06:29:42.110Z,1.10
2023-12-21T06:32:08.938Z,1.07
2023-12-21T06:34:35.902Z,1.03
2023-12-21T06:37:04.770Z,0.90
2023-12-21T06:39:35.138Z,0.80
2023-12-21T06:42:02.796Z,1.10
2023-12-21T06:44:29.720Z,1.00
2023-12-21T06:46:57.607Z,1.00
2023-12-21T06:49:24.610Z,0.80
2023-12-21T06:51:51.698Z,1.00
2023-12-21T06:54:19.030Z,0.90
2023-12-21T06:56:45.865Z,0.70
2023-12-21T06:59:13.472Z,0.97
2023-12-21T07:01:40.427Z,1.00
2023-12-21T07:04:09.672Z,0.70
2023-12-21T07:06:36.680Z,0.80
2023-12-21T07:09:03.928Z,0.80
2023-12-21T07:11:31.179Z,0.70
2023-12-21T07:13:58.153Z,0.80
2023-12-21T07:16:25.237Z,0.83
2023-12-21T07:18:52.216Z,0.70
2023-12-21T07:21:19.606Z,0.87
2023-12-21T07:23:46.620Z,0.70
2023-12-21T07:26:13.795Z,0.80
2023-12-21T07:28:41.843Z,0.93
2023-12-21T07:31:08.940Z,0.50
2023-12-21T07:33:35.879Z,0.73
2023-12-21T07:36:03.772Z,0.80
2023-12-21T07:38:30.709Z,0.60
2023-12-21T07:40:57.633Z,0.70
2023-12-21T07:43:24.529Z,0.50
2023-12-21T07:45:53.629Z,0.60
2023-12-21T07:48:20.616Z,0.70
2023-12-21T07:50:47.555Z,0.60
2023-12-21T07:53:14.366Z,0.60
2023-12-21T07:55:41.860Z,0.60
2023-12-21T07:58:08.744Z,0.60
2023-12-21T08:00:35.614Z,0.60
2023-12-21T08:03:03.302Z,0.90
2023-12-21T08:05:30.220Z,1.40
2023-12-21T08:07:57.059Z,0.90
2023-12-21T08:10:23.993Z,0.83
2023-12-21T08:12:50.917Z,0.90
2023-12-21T08:15:18.729Z,0.70
2023-12-21T08:17:45.836Z,0.90
2023-12-21T08:20:13.885Z,0.80
2023-12-21T08:22:40.838Z,0.90
2023-12-21T08:25:10.528Z,0.80
2023-12-21T08:27:38.805Z,0.80
2023-12-21T08:30:07.493Z,0.83
2023-12-21T08:32:34.602Z,0.80
2023-12-21T08:35:01.575Z,0.67
2023-12-21T08:37:28.825Z,0.60
2023-12-21T08:39:55.745Z,0.67
2023-12-21T08:42:23.204Z,0.70
2023-12-21T08:44:50.189Z,0.90
2023-12-21T08:47:17.013Z,1.27
2023-12-21T08:49:44.020Z,1.07
2023-12-21T08:52:13.626Z,0.83
2023-12-21T08:54:42.229Z,1.13
2023-12-21T08:57:11.102Z,1.00
2023-12-21T08:59:38.117Z,0.80
2023-12-21T09:02:04.990Z,1.00
2023-12-21T09:04:31.863Z,1.50
2023-12-21T09:06:58.749Z,1.87
2023-12-21T09:09:25.588Z,1.90
2023-12-21T09:11:52.485Z,2.57
2023-12-21T09:14:19.461Z,1.70
2023-12-21T09:16:46.515Z,1.93
2023-12-21T09:19:13.557Z,2.30
2023-12-21T09:21:41.955Z,2.80
2023-12-21T09:24:09.675Z,3.30
2023-12-21T09:26:36.544Z,5.10
2023-12-21T09:29:05.632Z,4.20
2023-12-21T09:31:33.226Z,4.73
2023-12-21T09:34:05.585Z,3.03
2023-12-21T09:36:32.812Z,4.70
2023-12-21T09:39:02.325Z,2.83
2023-12-21T09:41:29.493Z,3.17
2023-12-21T09:43:58.625Z,2.10
2023-12-21T09:46:28.930Z,3.20
2023-12-21T09:48:56.303Z,1.90
2023-12-21T09:51:26.059Z,1.00
2023-12-21T09:53:55.543Z,1.70
2023-12-21T09:56:23.475Z,1.50
2023-12-21T09:58:50.464Z,1.90
2023-12-21T10:01:19.060Z,1.83
2023-12-21T10:03:46.504Z,1.90
2023-12-21T10:06:14.269Z,1.50
2023-12-21T10:08:43.420Z,2.30
2023-12-21T10:11:13.265Z,2.60
2023-12-21T10:13:47.862Z,1.80
2023-12-21T10:16:14.954Z,3.23
2023-12-21T10:18:42.799Z,3.80
2023-12-21T10:21:10.076Z,6.10
2023-12-21T10:23:40.730Z,4.57
2023-12-21T10:26:07.943Z,3.50
2023-12-21T10:28:36.053Z,2.20
2023-12-21T10:31:05.323Z,2.30
2023-12-21T10:33:32.420Z,1.00
2023-12-21T10:35:59.817Z,1.07
2023-12-21T10:38:28.908Z,1.23
2023-12-21T10:40:55.892Z,0.80
2023-12-21T10:43:23.212Z,0.93
2023-12-21T10:45:50.922Z,0.80
2023-12-21T10:48:20.646Z,0.90
2023-12-21T10:50:51.803Z,1.00
2023-12-21T10:53:20.650Z,1.50
2023-12-21T10:55:50.380Z,1.80
2023-12-21T10:58:18.245Z,0.83
2023-12-21T11:00:46.187Z,0.90
2023-12-21T11:03:18.045Z,1.07
2023-12-21T11:05:46.224Z,0.90
2023-12-21T11:08:13.282Z,1.00
2023-12-21T11:10:40.335Z,0.70
2023-12-21T11:13:07.329Z,0.90
2023-12-21T11:15:34.381Z,0.80
2023-12-21T11:18:11.913Z,0.80
2023-12-21T11:20:51.760Z,0.80
2023-12-21T11:23:20.043Z,0.70
2023-12-21T11:25:58.922Z,0.80
2023-12-21T11:28:32.474Z,0.90
2023-12-21T11:30:59.802Z,0.80
2023-12-21T11:33:30.943Z,1.17
2023-12-21T11:35:58.897Z,1.00
2023-12-21T11:38:53.460Z,0.80
2023-12-21T11:41:25.116Z,0.83
2023-12-21T11:44:13.478Z,1.10
2023-12-21T11:46:41.574Z,1.20
2023-12-21T11:49:12.702Z,1.20
2023-12-21T11:51:50.435Z,1.40
2023-12-21T11:54:25.256Z,1.13
2023-12-21T11:57:09.784Z,1.87
2023-12-21T11:59:37.961Z,1.90
2023-12-21T12:02:12.110Z,2.03
2023-12-21T12:04:39.934Z,1.30
2023-12-21T12:07:08.050Z,1.97
2023-12-21T12:09:35.851Z,2.60
2023-12-21T12:12:02.792Z,1.83
2023-12-21T12:14:29.641Z,2.30
2023-12-21T12:16:56.544Z,2.90
2023-12-21T12:19:28.340Z,4.40
2023-12-21T12:21:55.608Z,2.70
2023-12-21T12:24:23.137Z,1.50
2023-12-21T12:26:50.454Z,1.30
2023-12-21T12:29:18.234Z,1.23
2023-12-21T12:31:46.140Z,1.37
2023-12-21T12:34:13.786Z,1.40
2023-12-21T12:36:41.050Z,1.47
2023-12-21T12:39:11.231Z,1.97
2023-12-21T12:41:39.058Z,2.00
2023-12-21T12:44:05.990Z,2.00
2023-12-21T12:46:32.984Z,2.27
2023-12-21T12:48:59.927Z,2.10
2023-12-21T12:51:26.932Z,1.80
2023-12-21T12:53:53.887Z,1.63
2023-12-21T12:56:20.760Z,1.90
2023-12-21T12:58:56.080Z,1.80
2023-12-21T13:01:28.738Z,1.50
2023-12-21T13:03:57.584Z,1.20
2023-12-21T13:06:24.707Z,1.30
2023-12-21T13:08:51.654Z,1.40
2023-12-21T13:11:18.563Z,1.30
2023-12-21T13:13:45.475Z,1.60
2023-12-21T13:16:13.056Z,1.70
2023-12-21T13:18:40.014Z,1.80
2023-12-21T13:21:06.955Z,1.80
2023-12-21T13:23:33.796Z,2.37
2023-12-21T13:26:00.718Z,2.53
2023-12-21T13:28:27.638Z,2.87
2023-12-21T13:30:55.840Z,2.30
2023-12-21T13:33:22.838Z,1.50
2023-12-21T13:35:49.776Z,1.07
2023-12-21T13:38:17.155Z,0.97
2023-12-21T13:40:44.364Z,1.13
2023-12-21T13:43:12.223Z,1.53
2023-12-21T13:45:39.081Z,1.50
2023-12-21T13:48:09.335Z,1.60
2023-12-21T13:50:36.568Z,1.40
2023-12-21T13:53:03.977Z,1.47
2023-12-21T13:55:31.477Z,1.87
2023-12-21T13:57:58.321Z,2.10
2023-12-21T14:00:25.452Z,1.53
2023-12-21T14:02:53.005Z,2.10
2023-12-21T14:05:20.020Z,2.03
2023-12-21T14:07:47.452Z,1.60
2023-12-21T14:10:14.735Z,1.50
2023-12-21T14:12:41.610Z,1.30
2023-12-21T14:15:09.128Z,1.40
2023-12-21T14:17:36.231Z,1.13
2023-12-21T14:20:03.901Z,1.10
2023-12-21T14:22:31.075Z,1.33
2023-12-21T14:24:58.686Z,1.20
2023-12-21T14:27:26.200Z,1.10
2023-12-21T14:29:53.131Z,1.57
2023-12-21T14:32:20.080Z,1.30
2023-12-21T14:34:46.991Z,1.17
2023-12-21T14:37:15.503Z,1.10
2023-12-21T14:39:42.607Z,1.00
2023-12-21T14:42:09.505Z,0.80
2023-12-21T14:44:39.597Z,0.80
2023-12-21T14:47:06.927Z,1.00
2023-12-21T14:49:34.133Z,1.10
2023-12-21T14:52:02.580Z,1.30
2023-12-21T14:54:30.485Z,1.10
2023-12-21T14:56:58.717Z,1.20
2023-12-21T14:59:26.067Z,1.20
2023-12-21T15:01:53.161Z,1.30
2023-12-21T15:04:20.392Z,0.90
2023-12-21T15:06:47.333Z,1.00
2023-12-21T15:09:15.009Z,1.10
2023-12-21T15:11:41.984Z,1.27
2023-12-21T15:14:08.920Z,1.30
2023-12-21T15:16:35.816Z,1.10
2023-12-21T15:19:02.904Z,1.00
2023-12-21T15:21:29.765Z,1.03
2023-12-21T15:23:56.735Z,0.90
2023-12-21T15:26:24.307Z,0.80
2023-12-21T15:28:51.145Z,0.73
2023-12-21T15:31:18.335Z,0.80
2023-12-21T15:33:45.251Z,1.10
2023-12-21T15:36:12.758Z,1.00
2023-12-21T15:38:39.833Z,1.00
2023-12-21T15:41:20.057Z,1.00
2023-12-21T15:43:47.545Z,0.90
2023-12-21T15:46:17.706Z,1.23
2023-12-21T15:48:44.839Z,0.90
2023-12-21T15:51:12.241Z,0.80
2023-12-21T15:53:39.174Z,1.10
2023-12-21T15:56:07.048Z,1.53
2023-12-21T15:58:37.114Z,2.10
2023-12-21T16:01:05.249Z,4.03
2023-12-21T16:03:32.747Z,4.07
2023-12-21T16:06:01.175Z,3.87
2023-12-21T16:08:28.204Z,3.50
2023-12-21T16:10:55.115Z,2.87
2023-12-21T16:13:22.063Z,2.40
2023-12-21T16:15:48.959Z,2.07
2023-12-21T16:18:15.955Z,2.60
2023-12-21T16:20:42.958Z,1.87
2023-12-21T16:23:10.120Z,2.17
2023-12-21T16:25:37.101Z,2.60
2023-12-21T16:28:07.151Z,2.47
2023-12-21T16:30:36.788Z,2.70
2023-12-21T16:33:04.290Z,2.10
2023-12-21T16:35:31.302Z,2.10
2023-12-21T16:37:58.221Z,2.53
2023-12-21T16:40:25.113Z,2.20
2023-12-21T16:42:52.081Z,2.40
2023-12-21T16:45:19.122Z,2.60
2023-12-21T16:47:46.145Z,2.67
2023-12-21T16:50:13.302Z,2.80
2023-12-21T16:52:40.317Z,2.10
2023-12-21T16:55:07.557Z,2.10
2023-12-21T16:57:35.470Z,2.10
2023-12-21T17:00:06.478Z,2.53
2023-12-21T17:02:33.723Z,2.60
2023-12-21T17:05:01.913Z,3.00
2023-12-21T17:07:29.045Z,2.23
2023-12-21T17:09:56.805Z,2.30
2023-12-21T17:12:24.005Z,2.60
2023-12-21T17:14:50.951Z,2.70
2023-12-21T17:17:17.790Z,2.47
2023-12-21T17:19:45.310Z,4.17
2023-12-21T17:22:12.709Z,3.93
2023-12-21T17:24:39.690Z,3.03
2023-12-21T17:27:06.565Z,1.87
2023-12-21T17:29:33.478Z,2.03
2023-12-21T17:32:03.154Z,2.83
2023-12-21T17:34:30.045Z,3.27
2023-12-21T17:36:58.423Z,2.90
2023-12-21T17:39:25.237Z,2.80
2023-12-21T17:41:52.087Z,2.77
2023-12-21T17:44:19.092Z,1.70
2023-12-21T17:46:46.241Z,2.17
2023-12-21T17:49:13.467Z,2.13
2023-12-21T17:51:40.413Z,2.00
2023-12-21T17:54:07.262Z,2.40
2023-12-21T17:56:34.162Z,2.00
2023-12-21T17:59:01.162Z,2.10
2023-12-21T18:01:28.172Z,2.70
2023-12-21T18:03:55.250Z,2.20
2023-12-21T18:06:22.332Z,2.07
2023-12-21T18:08:49.550Z,2.03
2023-12-21T18:11:16.609Z,1.80
2023-12-21T18:13:43.755Z,1.50
2023-12-21T18:16:11.103Z,1.67
2023-12-21T18:18:38.083Z,1.50
2023-12-21T18:21:05.312Z,1.87
2023-12-21T18:23:32.218Z,1.90
2023-12-21T18:25:59.212Z,1.80
2023-12-21T18:28:26.221Z,1.80
2023-12-21T18:30:53.152Z,2.47
2023-12-21T18:33:20.182Z,2.60
2023-12-21T18:35:47.075Z,2.70
2023-12-21T18:38:13.956Z,2.20
2023-12-21T18:40:42.718Z,1.70
2023-12-21T18:43:12.875Z,1.70
2023-12-21T18:45:39.889Z,1.60
2023-12-21T18:48:07.035Z,2.10
2023-12-21T18:50:33.908Z,1.90
2023-12-21T18:53:00.947Z,2.50
2023-12-21T18:55:27.836Z,1.90
2023-12-21T18:57:54.671Z,2.50
2023-12-21T19:00:21.529Z,1.83
2023-12-21T19:02:48.375Z,2.20
2023-12-21T19:05:15.484Z,2.03
2023-12-21T19:07:42.405Z,1.90
2023-12-21T19:10:10.555Z,2.20
2023-12-21T19:12:37.401Z,2.00
2023-12-21T19:15:04.649Z,1.80
2023-12-21T19:17:33.147Z,1.50
2023-12-21T19:20:00.324Z,1.77
2023-12-21T19:22:27.278Z,2.30
2023-12-21T19:24:54.147Z,1.90
2023-12-21T19:27:21.063Z,2.20
2023-12-21T19:29:47.883Z,2.20
2023-12-21T19:32:14.850Z,1.90
2023-12-21T19:34:41.780Z,3.10
2023-12-21T19:37:10.390Z,2.57
2023-12-21T19:39:37.477Z,2.17
2023-12-21T19:42:04.418Z,2.47
2023-12-21T19:44:32.109Z,2.03
2023-12-21T19:46:59.631Z,2.20
2023-12-21T19:49:26.632Z,2.30
2023-12-21T19:51:53.545Z,1.90
2023-12-21T19:54:20.613Z,1.80
2023-12-21T19:56:47.729Z,2.07
2023-12-21T19:59:19.955Z,2.10
2023-12-21T20:01:51.242Z,1.90
2023-12-21T20:04:19.367Z,1.80
2023-12-21T20:06:46.861Z,1.77
2023-12-21T20:09:15.395Z,1.80
2023-12-21T20:11:43.012Z,2.20
2023-12-21T20:14:10.929Z,2.53
2023-12-21T20:16:38.142Z,2.00
2023-12-21T20:19:05.451Z,2.50
2023-12-21T20:21:33.303Z,2.53
2023-12-21T20:24:09.607Z,2.53
2023-12-21T20:26:37.471Z,2.37
2023-12-21T20:29:04.727Z,2.17
2023-12-21T20:31:32.532Z,2.37
2023-12-21T20:33:59.490Z,2.43
2023-12-21T20:36:26.472Z,2.60
2023-12-21T20:38:53.438Z,2.07
2023-12-21T20:41:20.756Z,2.20
2023-12-21T20:43:49.636Z,1.63
2023-12-21T20:46:16.700Z,2.30
2023-12-21T20:48:43.723Z,2.33
2023-12-21T20:51:10.795Z,3.30
2023-12-21T20:53:37.645Z,3.03
2023-12-21T20:56:04.852Z,3.60
2023-12-21T20:58:32.618Z,3.83
2023-12-21T21:01:02.326Z,3.13
2023-12-21T21:03:29.239Z,6.13
2023-12-21T21:05:56.605Z,4.77
2023-12-21T21:08:23.689Z,2.97
2023-12-21T21:10:51.376Z,3.10
2023-12-21T21:13:18.994Z,2.90
2023-12-21T21:15:46.590Z,3.33
2023-12-21T21:18:13.840Z,2.70
2023-12-21T21:20:41.296Z,2.70
2023-12-21T21:23:08.291Z,3.07
2023-12-21T21:25:35.172Z,3.37
2023-12-21T21:28:02.023Z,2.87
2023-12-21T21:30:55.532Z,3.23
2023-12-21T21:33:15.981Z,3.23
2023-12-21T21:35:42.914Z,2.77
2023-12-21T21:38:09.793Z,4.10
2023-12-21T21:40:36.844Z,3.00
2023-12-21T21:43:04.214Z,3.10
2023-12-21T21:45:31.541Z,2.00
2023-12-21T21:47:58.965Z,2.83
2023-12-21T21:50:26.593Z,2.80
2023-12-21T21:52:53.505Z,3.10
2023-12-21T21:55:20.519Z,4.43
2023-12-21T21:57:47.648Z,3.50
2023-12-21T22:00:15.357Z,2.67
2023-12-21T22:02:42.741Z,3.00
2023-12-21T22:05:09.795Z,3.37
2023-12-21T22:07:38.660Z,2.60
2023-12-21T22:10:05.922Z,3.27
2023-12-21T22:12:32.767Z,2.20
2023-12-21T22:14:59.684Z,3.00
2023-12-21T22:17:26.561Z,4.20
2023-12-21T22:19:53.554Z,4.97
2023-12-21T22:22:20.442Z,4.87
2023-12-21T22:24:47.292Z,4.10
2023-12-21T22:27:14.131Z,3.90
2023-12-21T22:29:41.002Z,2.40
2023-12-21T22:32:08.865Z,2.13
2023-12-21T22:34:35.732Z,1.60
2023-12-21T22:37:02.718Z,2.30
2023-12-21T22:39:29.700Z,4.17
2023-12-21T22:41:56.618Z,2.60
2023-12-21T22:44:25.770Z,2.57
2023-12-21T22:46:55.504Z,2.30
2023-12-21T22:49:25.260Z,2.30
2023-12-21T22:51:52.165Z,1.93
2023-12-21T22:54:20.334Z,1.60
2023-12-21T22:56:47.258Z,1.50
2023-12-21T22:59:14.143Z,3.03
2023-12-21T23:01:41.045Z,1.40
2023-12-21T23:04:07.941Z,3.23
2023-12-21T23:06:36.954Z,1.50
2023-12-21T23:09:03.891Z,1.20
2023-12-21T23:11:31.177Z,1.50
2023-12-21T23:13:58.223Z,0.90
2023-12-21T23:16:25.213Z,1.90
2023-12-21T23:18:52.237Z,1.43
2023-12-21T23:21:19.777Z,1.60
2023-12-21T23:23:46.777Z,1.90
2023-12-21T23:26:13.690Z,1.50
2023-12-21T23:28:40.645Z,1.43
2023-12-21T23:31:07.487Z,2.33
2023-12-21T23:33:35.257Z,1.83
2023-12-21T23:36:02.348Z,1.43
2023-12-21T23:38:31.806Z,1.20
2023-12-21T23:41:02.855Z,1.20
2023-12-21T23:43:30.243Z,1.20
2023-12-21T23:45:57.301Z,0.93
2023-12-21T23:48:24.205Z,1.23
2023-12-21T23:50:51.171Z,1.10
2023-12-21T23:53:18.119Z,1.10
2023-12-21T23:55:45.025Z,1.00
2023-12-21T23:58:11.997Z,0.93
